Time;durP1;ratioP1;P1;durP2;ratioP2;P2;SDS_P1;SDS_P2;PMS_P1;PMS_P2;Temp;Humidity;BMP_temperature;BMP_pressure;BME280_temperature;BME280_humidity;BME280_pressure;Samples;Min_cycle;Max_cycle;Signal;HPM_P1;HPM_P2
2022/01/13 00:01:32;;;;;;;;;22.00;18.50;;;;;8.05;69.16;103844.69;5056847;28;49367;-75
2022/01/13 00:03:58;;;;;;;;;23.50;18.00;;;;;8.02;69.03;103841.84;5077187;28;47363;-76
2022/01/13 00:06:23;;;;;;;;;30.75;15.00;;;;;8.03;68.91;103843.66;5077823;28;45281;-75
2022/01/13 00:08:49;;;;;;;;;19.50;16.25;;;;;8.02;68.96;103839.19;5076821;28;51027;-76
2022/01/13 00:11:14;;;;;;;;;25.25;18.25;;;;;8.01;69.05;103834.75;5072697;28;53310;-76
2022/01/13 00:14:10;;;;;;;;;16.50;14.00;;;;;8.00;68.91;103838.19;5076730;28;45510;-74
2022/01/13 00:21:42;;;;;;;;;23.50;16.50;;;;;7.98;68.98;103851.22;5077849;28;45482;-76
2022/01/13 00:24:12;;;;;;;;;29.50;24.00;;;;;7.96;69.01;103834.44;5075319;27;46404;-76
2022/01/13 00:26:38;;;;;;;;;28.25;21.25;;;;;7.96;69.20;103838.78;5078429;28;45299;-76
2022/01/13 00:29:03;;;;;;;;;23.25;21.25;;;;;7.94;68.80;103829.88;5077355;28;45368;-74
2022/01/13 00:31:32;;;;;;;;;23.00;17.75;;;;;7.95;69.09;103834.31;5075680;28;45356;-75
2022/01/13 00:34:00;;;;;;;;;24.00;16.00;;;;;7.94;69.18;103840.41;5073899;28;46652;-75
2022/01/13 00:36:27;;;;;;;;;26.00;19.75;;;;;7.91;69.13;103825.28;5076839;28;45371;-75
2022/01/13 00:38:52;;;;;;;;;20.75;17.75;;;;;7.91;69.41;103834.91;5071918;28;45398;-76
2022/01/13 00:41:19;;;;;;;;;21.50;20.00;;;;;7.92;69.37;103834.09;5077810;28;45314;-75
2022/01/13 00:43:46;;;;;;;;;23.50;15.25;;;;;7.91;69.69;103827.94;5076394;28;46544;-76
2022/01/13 00:46:19;;;;;;;;;22.50;16.25;;;;;7.91;69.70;103827.03;5068773;28;45359;-75
2022/01/13 00:48:44;;;;;;;;;21.50;18.25;;;;;7.92;69.65;103826.22;5073528;28;45423;-74
2022/01/13 00:51:09;;;;;;;;;23.50;17.00;;;;;7.90;69.71;103834.00;5071338;28;45570;-75
2022/01/13 00:53:35;;;;;;;;;28.25;18.00;;;;;7.88;69.38;103830.31;5075762;28;62883;-75
2022/01/13 00:56:00;;;;;;;;;23.50;18.75;;;;;7.88;69.35;103826.00;5076965;28;60502;-76
2022/01/13 00:58:31;;;;;;;;;25.50;14.50;;;;;7.87;69.86;103823.25;5077315;28;52869;-76
2022/01/13 01:00:56;;;;;;;;;25.50;20.25;;;;;7.88;69.91;103827.69;5077742;28;45514;-75
2022/01/13 01:03:22;;;;;;;;;27.75;19.00;;;;;7.88;69.82;103825.06;5072977;28;47493;-75
2022/01/13 01:05:47;;;;;;;;;26.00;21.25;;;;;7.88;69.91;103826.00;5076599;28;45278;-74
2022/01/13 01:08:12;;;;;;;;;25.00;17.25;;;;;7.87;69.99;103825.88;5072609;28;54496;-76
2022/01/13 01:10:38;;;;;;;;;33.00;15.25;;;;;7.87;69.86;103826.78;5076230;28;45274;-75
2022/01/13 01:13:11;;;;;;;;;21.25;14.00;;;;;7.87;69.84;103825.88;5076008;27;46598;-75
2022/01/13 01:15:37;;;;;;;;;21.00;18.25;;;;;7.86;69.94;103824.06;5072882;28;45358;-75
2022/01/13 01:18:12;;;;;;;;;19.25;15.00;;;;;7.86;69.78;103822.34;5068946;28;45406;-75
2022/01/13 01:20:48;;;;;;;;;18.75;15.00;;;;;7.85;69.79;103828.41;5077036;28;45275;-76
2022/01/13 01:23:18;;;;;;;;;21.75;13.00;;;;;7.85;69.66;103820.53;5075593;28;46250;-74
2022/01/13 01:25:49;;;;;;;;;19.25;14.00;;;;;7.86;69.87;103827.59;5072240;28;45462;-75
2022/01/13 01:28:18;;;;;;;;;19.50;14.75;;;;;7.85;70.03;103823.16;5068173;28;45220;-75
2022/01/13 01:30:45;;;;;;;;;19.50;13.25;;;;;7.81;69.89;103815.84;5057006;28;45459;-75
2022/01/13 01:33:15;;;;;;;;;11.25;10.25;;;;;7.82;69.88;103812.41;5043255;28;46587;-75
2022/01/13 01:35:41;;;;;;;;;14.75;12.75;;;;;7.82;69.78;103812.41;5071889;28;45480;-75
2022/01/13 01:38:06;;;;;;;;;19.50;15.50;;;;;7.81;69.69;103818.47;5076265;28;45742;-75
2022/01/13 01:40:31;;;;;;;;;19.00;14.25;;;;;7.81;69.82;103820.19;5076452;28;45241;-75
2022/01/13 01:42:57;;;;;;;;;16.75;12.25;;;;;7.82;69.87;103816.75;5074670;28;62233;-75
2022/01/13 01:45:26;;;;;;;;;16.00;11.50;;;;;7.80;69.81;103821.00;5074850;28;45453;-75
2022/01/13 01:47:52;;;;;;;;;19.25;13.75;;;;;7.79;69.70;103825.34;5072185;28;45480;-74
2022/01/13 01:50:18;;;;;;;;;19.25;11.25;;;;;7.79;69.82;103833.25;5063830;28;45237;-74
2022/01/13 01:52:45;;;;;;;;;19.75;10.50;;;;;7.78;69.51;103828.81;5075534;28;47465;-76
2022/01/13 01:55:11;;;;;;;;;13.75;10.75;;;;;7.78;69.69;103838.41;5076075;28;45372;-75
2022/01/13 01:57:36;;;;;;;;;14.00;9.75;;;;;7.77;70.08;103826.94;5077669;28;45303;-74
2022/01/13 02:00:04;;;;;;;;;14.25;10.75;;;;;7.73;69.90;103821.38;5079504;28;45203;-75
2022/01/13 02:02:30;;;;;;;;;21.00;11.75;;;;;7.76;69.57;103838.28;5075681;28;47586;-75
2022/01/13 02:04:55;;;;;;;;;15.50;10.00;;;;;7.76;69.98;103840.91;5057445;28;45472;-76
2022/01/13 02:07:20;;;;;;;;;13.75;10.00;;;;;7.75;69.95;103844.34;5076595;28;45303;-76
2022/01/13 02:09:51;;;;;;;;;16.50;10.75;;;;;7.74;70.07;103832.00;5075797;28;49858;-75
2022/01/13 02:12:26;;;;;;;;;8.75;8.75;;;;;7.72;70.00;103845.84;5070245;28;46312;-75
2022/01/13 02:15:05;;;;;;;;;11.25;8.50;;;;;7.68;70.21;103844.72;5075642;28;45286;-76
2022/01/13 02:17:34;;;;;;;;;11.00;10.50;;;;;7.69;70.15;103841.28;5058340;28;46854;-77
2022/01/13 02:20:00;;;;;;;;;12.75;11.50;;;;;7.66;70.18;103845.41;5065040;28;45339;-76
2022/01/13 02:22:26;;;;;;;;;10.25;10.00;;;;;7.67;70.10;103855.13;5047502;28;46657;-75
2022/01/13 02:24:51;;;;;;;;;11.00;10.00;;;;;7.67;70.23;103849.84;5058356;28;45501;-75
2022/01/13 02:27:16;;;;;;;;;10.75;10.00;;;;;7.67;70.06;103850.81;5054141;28;45462;-75
2022/01/13 02:29:42;;;;;;;;;10.00;10.00;;;;;7.63;70.18;103854.00;5049148;28;57898;-76
2022/01/13 02:32:07;;;;;;;;;14.25;10.25;;;;;7.64;70.03;103849.66;5059101;28;47516;-76
2022/01/13 02:34:33;;;;;;;;;12.25;12.00;;;;;7.60;70.19;103846.78;5058419;28;45462;-76
2022/01/13 02:36:59;;;;;;;;;11.00;9.75;;;;;7.62;70.32;103831.16;5059879;28;45514;-75
2022/01/13 02:39:27;;;;;;;;;10.50;9.50;;;;;7.60;70.40;103831.00;5059186;28;45602;-76
2022/01/13 02:41:52;;;;;;;;;13.00;10.00;;;;;7.59;70.19;103826.56;5041249;28;47850;-76
2022/01/13 02:44:21;;;;;;;;;10.75;9.00;;;;;7.57;70.18;103835.16;5054770;28;45357;-75
2022/01/13 02:49:17;;;;;;;;;11.75;8.25;;;;;7.55;70.11;103832.41;5056913;28;45363;-75
2022/01/13 02:51:43;;;;;;;;;15.75;10.75;;;;;7.55;70.23;103834.13;5056891;28;47646;-75
2022/01/13 02:54:09;;;;;;;;;15.00;10.50;;;;;7.54;70.24;103833.22;5051706;28;45437;-76
2022/01/13 02:56:34;;;;;;;;;11.50;11.50;;;;;7.53;70.30;103831.41;5051636;28;45511;-75
2022/01/13 02:59:00;;;;;;;;;11.00;9.25;;;;;7.53;70.32;103838.38;5057339;28;45375;-75
2022/01/13 03:01:25;;;;;;;;;12.25;11.00;;;;;7.50;70.25;103831.16;5058822;28;45542;-76
2022/01/13 03:03:51;;;;;;;;;21.25;10.50;;;;;7.54;70.60;103821.78;5058161;28;45457;-75
2022/01/13 03:06:28;;;;;;;;;16.75;10.75;;;;;7.54;70.56;103832.31;5059257;28;45362;-74
2022/01/13 03:08:53;;;;;;;;;14.00;9.75;;;;;7.53;70.38;103826.13;5059178;28;45438;-75
2022/01/13 03:11:19;;;;;;;;;19.50;15.00;;;;;7.56;70.94;103835.94;5058658;28;46262;-76
2022/01/13 03:13:45;;;;;;;;;15.50;12.75;;;;;7.53;70.56;103828.78;5058537;28;45337;-76
2022/01/13 03:16:14;;;;;;;;;17.25;11.50;;;;;7.51;70.63;103829.44;5057381;28;45588;-76
2022/01/13 03:18:39;;;;;;;;;16.25;13.75;;;;;7.55;70.70;103834.13;5054983;28;45402;-75
2022/01/13 03:21:05;;;;;;;;;16.00;11.00;;;;;7.55;70.67;103834.13;5052160;28;62651;-75
2022/01/13 03:23:31;;;;;;;;;13.75;11.00;;;;;7.57;70.71;103832.53;5071912;28;45307;-75
2022/01/13 03:25:57;;;;;;;;;15.00;11.00;;;;;7.55;70.49;103819.25;5078170;28;45546;-75
2022/01/13 03:28:38;;;;;;;;;13.00;11.75;;;;;7.53;70.58;103815.63;5071103;28;45513;-75
2022/01/13 03:31:04;;;;;;;;;14.00;11.75;;;;;7.51;70.58;103818.94;5075103;28;46213;-75
2022/01/13 03:33:29;;;;;;;;;19.00;10.00;;;;;7.56;70.41;103828.06;5078081;28;45340;-75
2022/01/13 03:35:55;;;;;;;;;17.25;10.50;;;;;7.52;70.63;103818.16;5074707;28;45430;-76
2022/01/13 03:38:20;;;;;;;;;13.25;9.50;;;;;7.56;70.48;103830.69;5078880;28;45620;-75
2022/01/13 03:40:45;;;;;;;;;13.00;10.25;;;;;7.55;70.48;103823.59;5060681;28;52617;-75
2022/01/13 03:43:11;;;;;;;;;15.00;10.75;;;;;7.55;70.23;103820.97;5060188;28;55806;-75
2022/01/13 03:45:37;;;;;;;;;12.75;10.75;;;;;7.55;70.39;103819.25;5073157;28;45433;-75
2022/01/13 03:48:02;;;;;;;;;8.75;8.75;;;;;7.55;70.51;103824.50;5074048;28;49895;-76
2022/01/13 03:50:28;;;;;;;;;14.00;14.00;;;;;7.55;70.33;103815.72;5077200;28;46439;-74
2022/01/13 03:53:01;;;;;;;;;18.50;13.50;;;;;7.53;70.39;103815.63;5078078;28;45237;-75
2022/01/13 03:55:38;;;;;;;;;16.75;9.75;;;;;7.53;70.41;103814.72;5077678;28;45452;-74
2022/01/13 03:58:41;;;;;;;;;11.25;10.75;;;;;7.54;70.41;103816.53;5073808;28;45222;-76
2022/01/13 04:01:37;;;;;;;;;17.25;11.25;;;;;7.53;70.27;103820.88;5071718;28;46374;-76
2022/01/13 04:04:02;;;;;;;;;11.75;11.50;;;;;7.49;70.35;103815.28;5067778;28;45449;-75
2022/01/13 04:06:42;;;;;;;;;24.75;11.25;;;;;7.44;70.22;103814.03;5039778;28;45379;-74
2022/01/13 04:09:09;;;;;;;;;19.75;10.00;;;;;7.49;70.48;103831.06;5073613;28;45517;-75
2022/01/13 04:11:34;;;;;;;;;10.00;9.00;;;;;7.47;70.32;103830.06;5077810;28;47428;-75
2022/01/13 04:14:02;;;;;;;;;16.50;10.75;;;;;7.46;70.25;103829.16;5077158;28;54617;-75
2022/01/13 04:16:33;;;;;;;;;14.25;11.25;;;;;7.44;70.15;103828.09;5077938;28;45343;-75
2022/01/13 04:19:04;;;;;;;;;11.25;11.00;;;;;7.41;69.95;103821.72;5059968;28;45443;-75
2022/01/13 04:21:34;;;;;;;;;13.25;10.00;;;;;7.41;70.05;103827.91;5077299;28;47665;-75
2022/01/13 04:23:59;;;;;;;;;17.75;10.75;;;;;7.42;69.97;103831.44;5070433;28;45558;-76
2022/01/13 04:26:30;;;;;;;;;13.00;9.25;;;;;7.38;70.18;103821.50;5077919;28;45358;-76
2022/01/13 04:29:04;;;;;;;;;14.00;9.75;;;;;7.39;70.32;103824.22;5069183;28;45403;-75
2022/01/13 04:31:30;;;;;;;;;12.00;10.25;;;;;7.36;70.21;103813.50;5073918;28;47411;-75
2022/01/13 04:33:55;;;;;;;;;11.75;10.25;;;;;7.38;70.22;103825.03;5057154;28;61293;-76
2022/01/13 04:36:20;;;;;;;;;9.75;8.50;;;;;7.38;69.99;103824.13;5077572;28;45406;-75
2022/01/13 04:38:46;;;;;;;;;10.00;10.00;;;;;7.38;70.13;103810.97;5076941;28;45478;-77
2022/01/13 04:41:11;;;;;;;;;14.50;7.00;;;;;7.36;69.96;103810.88;5069526;28;57952;-75
2022/01/13 04:43:37;;;;;;;;;10.75;9.00;;;;;7.33;69.90;103806.31;5076912;28;45280;-74
2022/01/13 04:46:02;;;;;;;;;19.25;10.00;;;;;7.29;70.11;103795.44;5076552;28;59845;-75
2022/01/13 04:48:27;;;;;;;;;10.25;9.75;;;;;7.30;70.12;103806.09;5077291;28;54547;-75
2022/01/13 04:50:53;;;;;;;;;11.50;8.75;;;;;7.32;69.95;103816.72;5075477;28;59830;-76
2022/01/13 04:53:18;;;;;;;;;7.50;7.00;;;;;7.28;69.98;103812.94;5071322;28;45472;-75
2022/01/13 04:55:52;;;;;;;;;11.25;11.00;;;;;7.24;69.90;103816.13;5076872;28;45755;-74
2022/01/13 04:58:18;;;;;;;;;11.50;10.75;;;;;7.26;70.00;103819.81;5064562;28;45408;-76
2022/01/13 05:00:44;;;;;;;;;9.75;9.25;;;;;7.23;69.99;103816.94;5068832;28;47725;-76
2022/01/13 05:03:09;;;;;;;;;12.50;9.00;;;;;7.20;69.90;103811.50;5052888;28;45441;-75
2022/01/13 05:05:35;;;;;;;;;7.00;6.00;;;;;7.23;69.92;103823.91;5076160;28;45156;-76
2022/01/13 05:08:00;;;;;;;;;8.50;7.00;;;;;7.22;70.07;103820.38;5074733;28;51250;-76
2022/01/13 05:10:25;;;;;;;;;13.25;9.50;;;;;7.22;70.05;103823.00;5074166;28;46418;-75
2022/01/13 05:12:55;;;;;;;;;16.00;9.50;;;;;7.22;69.89;103825.63;5073454;28;45206;-76
2022/01/13 05:15:24;;;;;;;;;10.50;8.50;;;;;7.22;70.14;103825.63;5077234;28;45313;-76
2022/01/13 05:20:22;;;;;;;;;11.00;9.00;;;;;7.18;69.88;103807.81;5066886;28;45593;-76
2022/01/13 05:22:48;;;;;;;;;17.00;12.50;;;;;7.24;70.04;103818.75;5076758;27;45571;-75
2022/01/13 05:25:14;;;;;;;;;10.75;8.75;;;;;7.23;70.07;103822.19;5076277;28;45496;-76
2022/01/13 05:27:39;;;;;;;;;12.50;10.25;;;;;7.23;69.82;103823.91;5068160;28;45333;-75
2022/01/13 05:30:05;;;;;;;;;16.25;8.50;;;;;7.20;69.92;103824.63;5070973;28;51629;-75
2022/01/13 05:32:30;;;;;;;;;14.25;10.25;;;;;7.19;70.01;103813.97;5073921;28;45761;-77
2022/01/13 05:34:56;;;;;;;;;10.00;9.25;;;;;7.16;70.09;103812.06;5071330;28;45922;-75
2022/01/13 05:37:21;;;;;;;;;13.50;9.50;;;;;7.21;70.04;103815.94;5075933;28;52922;-75
2022/01/13 05:39:46;;;;;;;;;13.50;9.75;;;;;7.21;70.11;103815.94;5075429;28;62477;-75
2022/01/13 05:42:12;;;;;;;;;16.25;10.50;;;;;7.17;69.97;103808.63;5075948;28;59378;-76
2022/01/13 05:44:38;;;;;;;;;13.25;11.00;;;;;7.19;70.14;103808.72;5076256;28;45458;-75
2022/01/13 05:47:05;;;;;;;;;11.00;7.75;;;;;7.15;70.21;103798.81;5053229;28;45522;-74
2022/01/13 05:49:30;;;;;;;;;14.00;10.25;;;;;7.24;70.17;103807.34;5057687;28;46699;-75
2022/01/13 05:51:55;;;;;;;;;14.00;12.00;;;;;7.25;69.99;103796.97;5075709;28;60158;-76
2022/01/13 05:54:21;;;;;;;;;10.25;10.00;;;;;7.26;70.08;103809.31;5071607;28;54980;-75
2022/01/13 05:56:46;;;;;;;;;13.50;10.00;;;;;7.26;70.04;103808.38;5076545;28;45413;-75
2022/01/13 05:59:12;;;;;;;;;14.75;10.50;;;;;7.26;69.95;103808.38;5075435;28;47446;-75
2022/01/13 06:01:37;;;;;;;;;14.50;11.75;;;;;7.25;70.23;103807.47;5075984;28;45502;-74
2022/01/13 06:04:03;;;;;;;;;18.00;11.75;;;;;7.24;69.90;103808.25;5070446;28;56531;-75
2022/01/13 06:06:28;;;;;;;;;13.00;12.00;;;;;7.24;69.89;103800.38;5070122;28;45494;-75
2022/01/13 06:08:54;;;;;;;;;17.75;15.50;;;;;7.24;69.85;103807.34;5075524;28;62263;-74
2022/01/13 06:11:22;;;;;;;;;9.75;6.00;;;;;7.22;69.86;103807.25;5076223;28;45506;-76
2022/01/13 06:13:48;;;;;;;;;12.50;10.25;;;;;7.22;69.85;103806.34;5071858;28;45392;-76
2022/01/13 06:16:13;;;;;;;;;13.75;13.00;;;;;7.21;69.74;103815.94;5074993;28;45346;-75
2022/01/13 06:18:38;;;;;;;;;13.75;11.00;;;;;7.21;69.95;103809.78;5070418;28;64706;-77
2022/01/13 06:21:04;;;;;;;;;19.75;11.00;;;;;7.22;70.04;103819.47;5066362;28;59617;-77
2022/01/13 06:23:29;;;;;;;;;16.50;12.25;;;;;7.22;69.76;103820.38;5065284;28;49626;-77
2022/01/13 06:25:57;;;;;;;;;16.25;9.50;;;;;7.22;69.85;103820.38;5069846;28;53929;-76
2022/01/13 06:28:23;;;;;;;;;17.50;10.25;;;;;7.19;69.90;103814.94;5070907;28;47146;-76
2022/01/13 06:30:48;;;;;;;;;14.00;9.25;;;;;7.22;69.85;103823.00;5062737;28;45409;-77
2022/01/13 06:33:13;;;;;;;;;19.75;14.50;;;;;7.17;69.97;103808.63;5067557;28;56397;-77
2022/01/13 06:35:39;;;;;;;;;14.25;10.25;;;;;7.22;70.07;103817.75;5068617;28;45264;-75
2022/01/13 06:38:05;;;;;;;;;14.75;10.25;;;;;7.23;69.98;103819.56;5068265;28;46399;-77
2022/01/13 06:40:30;;;;;;;;;14.50;10.50;;;;;7.21;69.92;103815.94;5060621;28;45196;-76
2022/01/13 06:42:55;;;;;;;;;17.00;10.75;;;;;7.21;69.81;103815.94;5054206;28;45229;-75
2022/01/13 06:45:21;;;;;;;;;21.25;13.75;;;;;7.21;69.89;103820.28;5065471;28;45292;-76
2022/01/13 06:47:46;;;;;;;;;12.25;8.00;;;;;7.21;69.82;103813.31;5058739;28;45621;-76
2022/01/13 06:50:12;;;;;;;;;18.75;13.00;;;;;7.21;69.94;103817.66;5061258;28;60314;-76
2022/01/13 06:52:37;;;;;;;;;10.25;9.75;;;;;7.23;69.94;103818.66;5062940;28;57515;-75
2022/01/13 06:55:03;;;;;;;;;13.25;10.25;;;;;7.23;69.67;103824.84;5060074;28;45278;-75
2022/01/13 06:57:30;;;;;;;;;19.25;12.00;;;;;7.23;70.04;103822.19;5064268;28;46513;-77
2022/01/13 06:59:55;;;;;;;;;13.50;12.25;;;;;7.24;69.98;103828.38;5074025;28;45430;-76
2022/01/13 07:02:22;;;;;;;;;11.75;10.50;;;;;7.24;69.88;103828.38;5071228;28;45728;-76
2022/01/13 07:04:48;;;;;;;;;14.75;10.25;;;;;7.23;69.90;103821.28;5074412;28;45366;-76
2022/01/13 07:07:13;;;;;;;;;18.25;13.00;;;;;7.22;69.79;103823.00;5070976;28;60460;-76
2022/01/13 07:09:39;;;;;;;;;19.00;12.50;;;;;7.21;69.88;103818.56;5070404;28;45388;-75
2022/01/13 07:12:04;;;;;;;;;17.25;10.75;;;;;7.16;70.09;103813.78;5074626;28;45370;-75
2022/01/13 07:14:30;;;;;;;;;16.00;11.00;;;;;7.16;69.74;103822.56;5058252;28;45434;-76
2022/01/13 07:16:55;;;;;;;;;17.75;10.75;;;;;7.18;69.91;103822.66;5075566;28;60819;-76
2022/01/13 07:19:21;;;;;;;;;10.25;9.00;;;;;7.20;69.82;103828.97;5040751;28;45462;-76
2022/01/13 07:21:47;;;;;;;;;12.00;10.00;;;;;7.15;69.72;103825.09;5066440;28;55784;-76
2022/01/13 07:24:13;;;;;;;;;10.50;10.50;;;;;7.19;69.76;103840.25;5071262;28;45694;-76
2022/01/13 07:26:38;;;;;;;;;22.25;13.50;;;;;7.16;69.97;103830.44;5034813;28;45811;-77
2022/01/13 07:29:04;;;;;;;;;18.75;12.00;;;;;7.20;69.96;103821.09;5049202;28;53810;-77
2022/01/13 07:31:29;;;;;;;;;16.50;12.75;;;;;7.19;70.17;103819.25;5072479;28;45466;-77
2022/01/13 07:33:55;;;;;;;;;16.25;15.00;;;;;7.20;70.00;103828.97;5072238;28;45502;-77
2022/01/13 07:36:20;;;;;;;;;12.00;10.75;;;;;7.18;70.17;103830.56;5070195;28;46174;-78
2022/01/13 07:38:46;;;;;;;;;17.25;14.25;;;;;7.20;70.34;103840.41;5057965;28;45500;-77
2022/01/13 07:41:11;;;;;;;;;23.50;14.75;;;;;7.17;70.19;103828.72;5072741;28;45343;-77
2022/01/13 07:43:37;;;;;;;;;17.25;13.25;;;;;7.20;70.03;103827.25;5073479;28;49104;-77
2022/01/13 07:46:02;;;;;;;;;16.75;14.75;;;;;7.20;70.17;103831.59;5075846;28;46305;-78
2022/01/13 07:48:27;;;;;;;;;17.75;14.00;;;;;7.20;70.18;103835.13;5074641;28;50352;-77
2022/01/13 07:50:53;;;;;;;;;17.50;11.50;;;;;7.21;70.25;103831.69;5071932;28;58422;-77
2022/01/13 07:53:18;;;;;;;;;20.75;15.00;;;;;7.22;70.13;103820.38;5075752;28;45414;-78
2022/01/13 07:55:44;;;;;;;;;15.25;14.50;;;;;7.19;70.14;103821.88;5075822;28;54270;-77
2022/01/13 07:58:09;;;;;;;;;18.50;14.25;;;;;7.22;70.09;103825.63;5075304;28;58632;-77
2022/01/13 08:00:35;;;;;;;;;19.50;14.25;;;;;7.22;70.20;103823.00;5074596;28;58733;-76
2022/01/13 08:03:00;;;;;;;;;19.00;14.50;;;;;7.21;70.21;103825.53;5074785;28;45489;-77
2022/01/13 08:05:25;;;;;;;;;16.25;13.25;;;;;7.23;70.28;103816.03;5074880;28;55611;-76
2022/01/13 08:07:51;;;;;;;;;15.50;12.25;;;;;7.23;70.17;103814.31;5073844;28;48525;-76
2022/01/13 08:10:16;;;;;;;;;20.00;14.25;;;;;7.25;70.01;103823.25;5073818;28;56244;-76
2022/01/13 08:12:42;;;;;;;;;18.00;16.00;;;;;7.26;70.32;103814.56;5075725;28;45399;-77
2022/01/13 08:15:12;;;;;;;;;23.75;13.50;;;;;7.25;70.13;103804.84;5072558;28;59729;-78
2022/01/13 08:20:21;;;;;;;;;16.75;12.75;;;;;7.28;70.34;103818.19;5072736;28;45411;-77
2022/01/13 08:22:47;;;;;;;;;20.00;11.00;;;;;7.30;70.09;103821.88;5075500;28;45481;-77
2022/01/13 08:25:12;;;;;;;;;12.50;12.00;;;;;7.31;70.08;103821.06;5074539;28;55882;-77
2022/01/13 08:27:37;;;;;;;;;20.25;13.75;;;;;7.31;69.91;103821.06;5071775;28;45690;-77
2022/01/13 08:30:04;;;;;;;;;14.75;13.75;;;;;7.31;69.92;103810.53;5069188;28;45583;-76
2022/01/13 08:32:30;;;;;;;;;44.25;34.25;;;;;7.32;70.12;103817.63;5067775;28;45740;-77
2022/01/13 08:34:55;;;;;;;;;27.00;23.50;;;;;7.34;70.07;103816.00;5068640;27;46290;-77
2022/01/13 08:37:20;;;;;;;;;16.00;14.00;;;;;7.34;69.57;103813.38;5072903;27;58186;-77
2022/01/13 08:39:46;;;;;;;;;18.50;14.00;;;;;7.34;69.91;103816.00;5070903;27;45893;-78
2022/01/13 08:42:12;;;;;;;;;15.25;14.00;;;;;7.29;69.82;103806.88;5068301;27;45564;-77
2022/01/13 08:44:40;;;;;;;;;19.50;16.25;;;;;7.34;69.76;103821.25;5070958;27;46302;-77
2022/01/13 08:47:06;;;;;;;;;17.50;13.50;;;;;7.37;69.90;103819.69;5054599;28;45642;-77
2022/01/13 08:49:31;;;;;;;;;22.00;13.75;;;;;7.30;69.84;103813.97;5070951;27;45502;-77
2022/01/13 08:51:57;;;;;;;;;18.00;15.50;;;;;7.34;69.95;103816.00;5074297;27;45759;-76
2022/01/13 08:54:23;;;;;;;;;13.25;11.50;;;;;7.37;69.38;103819.69;5073005;27;47322;-77
2022/01/13 08:56:48;;;;;;;;;20.75;13.50;;;;;7.40;69.84;103817.25;5071796;27;49044;-76
2022/01/13 08:59:14;;;;;;;;;20.50;16.25;;;;;7.41;69.73;103825.28;5073978;27;45525;-77
2022/01/13 09:01:39;;;;;;;;;37.50;31.75;;;;;7.41;69.73;103820.00;5068784;27;45521;-76
2022/01/13 09:04:06;;;;;;;;;22.25;19.50;;;;;7.41;69.65;103816.47;5065425;28;62434;-77
2022/01/13 09:06:31;;;;;;;;;14.00;14.00;;;;;7.46;69.83;103820.34;5070246;28;62332;-78
2022/01/13 09:08:56;;;;;;;;;23.00;14.00;;;;;7.47;69.61;103823.06;5072885;28;55796;-78
2022/01/13 09:11:22;;;;;;;;;16.00;14.50;;;;;7.49;69.64;103833.69;5072207;28;45547;-77
2022/01/13 09:13:47;;;;;;;;;23.50;21.00;;;;;7.50;69.71;103830.25;5074092;28;45787;-79
2022/01/13 09:16:15;;;;;;;;;20.50;13.75;;;;;7.51;69.55;103835.66;5071881;28;45443;-75
2022/01/13 09:19:07;;;;;;;;;15.75;13.00;;;;;7.49;69.58;103831.06;5073377;28;45461;-76
2022/01/13 09:21:32;;;;;;;;;17.75;12.50;;;;;7.51;69.72;103838.28;5178249;22;46372;-77
2022/01/13 09:23:57;;;;;;;;;14.75;13.75;;;;;7.53;69.32;103847.16;5092770;27;46359;-76
2022/01/13 09:26:23;;;;;;;;;21.75;16.00;;;;;7.54;69.12;103862.13;5091336;27;60900;-76
2022/01/13 09:28:48;;;;;;;;;23.75;14.00;;;;;7.54;69.19;103855.97;5087011;27;45704;-77
2022/01/13 09:31:14;;;;;;;;;19.00;12.25;;;;;7.54;69.02;103851.63;5094952;27;55719;-75
2022/01/13 09:33:39;;;;;;;;;23.50;14.00;;;;;7.54;69.50;103859.50;5090999;27;61730;-77
2022/01/13 09:36:06;;;;;;;;;14.75;14.50;;;;;7.55;69.13;103861.31;5103674;27;45508;-76
2022/01/13 09:38:32;;;;;;;;;16.25;14.25;;;;;7.56;69.02;103862.25;5089437;27;45514;-77
2022/01/13 09:40:57;;;;;;;;;19.25;16.00;;;;;7.57;69.13;103858.84;5094784;27;45530;-76
2022/01/13 09:43:25;;;;;;;;;19.25;17.00;;;;;7.56;69.19;103857.91;5092789;27;62923;-77
2022/01/13 09:45:51;;;;;;;;;24.75;15.25;;;;;7.57;69.00;103870.25;5085435;27;45603;-77
2022/01/13 09:48:16;;;;;;;;;21.50;18.00;;;;;7.57;69.13;103861.47;5093273;27;45469;-77
2022/01/13 09:50:42;;;;;;;;;27.00;22.50;;;;;7.60;69.10;103865.19;5092125;27;45372;-76
2022/01/13 09:53:08;;;;;;;;;21.50;16.25;;;;;7.63;69.12;103861.91;5084508;27;46698;-74
2022/01/13 09:55:33;;;;;;;;;24.25;15.00;;;;;7.65;68.96;103867.25;5094066;27;56725;-77
2022/01/13 09:58:03;;;;;;;;;18.50;17.25;;;;;7.60;69.01;103859.94;5092519;27;54704;-75
2022/01/13 10:00:29;;;;;;;;;22.25;15.00;;;;;7.66;68.91;103866.44;5093607;27;45367;-77
2022/01/13 10:02:54;;;;;;;;;19.50;15.25;;;;;7.65;68.85;103873.44;5092680;27;46369;-76
2022/01/13 10:05:20;;;;;;;;;21.50;15.75;;;;;7.65;68.74;103876.06;5090538;27;62378;-75
2022/01/13 10:07:48;;;;;;;;;17.75;16.00;;;;;7.60;68.75;103867.84;5095030;27;45653;-77
2022/01/13 10:10:15;;;;;;;;;17.75;16.00;;;;;7.62;68.71;103875.84;5091111;27;45539;-77
2022/01/13 10:12:44;;;;;;;;;21.00;14.50;;;;;7.66;68.64;103875.25;5089336;27;47592;-76
2022/01/13 10:17:48;;;;;;;;;24.75;18.25;;;;;7.67;68.42;103882.38;5092121;27;45658;-76
2022/01/13 10:20:15;;;;;;;;;26.00;19.00;;;;;7.65;68.35;103876.06;5089213;27;45427;-76
2022/01/13 10:22:40;;;;;;;;;22.25;15.75;;;;;7.55;68.42;103860.41;5094063;27;46766;-76
2022/01/13 10:25:08;;;;;;;;;22.75;18.75;;;;;7.63;68.49;103874.13;5088726;27;46810;-77
2022/01/13 10:27:35;;;;;;;;;27.75;20.00;;;;;7.61;68.40;103874.00;5091967;27;45617;-77
2022/01/13 10:30:05;;;;;;;;;17.25;14.50;;;;;7.61;68.31;103866.09;5086182;27;45598;-76
2022/01/13 10:32:39;;;;;;;;;23.75;18.00;;;;;7.61;68.23;103861.75;5092518;27;46206;-75
2022/01/13 10:35:15;;;;;;;;;23.25;16.25;;;;;7.68;68.45;103867.50;5088165;27;47073;-76
2022/01/13 10:38:02;;;;;;;;;16.50;14.00;;;;;7.70;68.28;103864.16;5093058;27;45535;-76
2022/01/13 10:40:31;;;;;;;;;23.25;15.00;;;;;7.74;68.47;103867.91;5090164;27;45697;-75
2022/01/13 10:45:36;;;;;;;;;26.75;19.00;;;;;7.80;68.13;103863.09;5096931;27;45275;-77
2022/01/13 10:48:22;;;;;;;;;23.00;15.00;;;;;7.82;68.16;103859.75;5089782;27;45640;-76
2022/01/13 10:50:58;;;;;;;;;24.00;13.50;;;;;7.80;67.95;103853.47;5091027;27;45440;-78
2022/01/13 10:53:25;;;;;;;;;25.00;20.50;;;;;7.85;67.98;103862.63;5093036;27;47167;-76
2022/01/13 10:55:55;;;;;;;;;24.00;17.75;;;;;7.86;68.24;103856.53;5092048;27;45620;-77
2022/01/13 10:58:26;;;;;;;;;23.75;16.25;;;;;7.85;67.97;103857.34;5091068;27;45358;-76
2022/01/13 11:00:52;;;;;;;;;19.75;16.50;;;;;7.92;68.24;103857.78;5089445;27;45342;-75
2022/01/13 11:03:19;;;;;;;;;19.25;15.50;;;;;7.89;68.11;103847.97;5087730;27;46419;-76
2022/01/13 11:05:51;;;;;;;;;20.50;16.00;;;;;7.94;67.91;103846.56;5091855;27;45453;-77
2022/01/13 11:08:21;;;;;;;;;25.00;20.50;;;;;7.93;67.76;103852.63;5094182;27;45440;-78
2022/01/13 11:10:48;;;;;;;;;19.50;16.25;;;;;7.93;67.95;103846.44;5096722;27;45278;-80
2022/01/13 11:13:18;;;;;;;;;27.25;22.00;;;;;7.96;67.23;103844.03;5094881;27;46716;-78
2022/01/13 11:15:46;;;;;;;;;42.25;34.25;;;;;7.94;67.80;103850.94;5085062;27;45479;-77
2022/01/13 11:18:11;;;;;;;;;24.50;17.00;;;;;7.97;67.62;103835.34;5097871;27;45385;-76
2022/01/13 11:20:37;;;;;;;;;21.75;17.25;;;;;7.99;67.65;103841.59;5075844;27;54425;-76
2022/01/13 11:23:02;;;;;;;;;29.50;23.00;;;;;8.02;67.56;103836.56;5092097;27;59797;-76
2022/01/13 11:25:27;;;;;;;;;25.75;23.50;;;;;8.06;67.35;103842.16;5096235;27;61553;-77
2022/01/13 11:27:54;;;;;;;;;25.50;23.50;;;;;8.05;67.36;103829.81;5097285;27;45498;-76
2022/01/13 11:30:22;;;;;;;;;25.25;22.00;;;;;8.14;67.22;103832.16;5096930;27;45565;-76
2022/01/13 11:32:47;;;;;;;;;24.50;19.50;;;;;8.18;66.92;103828.94;5096370;27;45422;-76
2022/01/13 11:35:27;;;;;;;;;38.75;29.00;;;;;8.20;66.84;103823.75;5088020;27;45339;-75
2022/01/13 11:37:52;;;;;;;;;45.00;30.25;;;;;8.19;67.16;103822.84;5088694;27;45506;-75